Pointe-Lebel, Canada
Current Conditions -  °F | °C
As of 11:00 PM on Friday 24 Oct 2014 (Local Time) from CYBC Reporting Station
Broken Clouds Broken Clouds  
Wind Chill: 34°   Ceiling: 17000
Heat Index: 37°   Visibility: 9mi
Dew Point: 30°   Wind: 5mph
Humidity: 75%   Direction: 280°W
Pressure: 29.72"   Gusts: NA
Location:  49.15°N, 68.2°W
Report Text: CYBC 250300Z AUTO 28004KT 9SM BKN170 BKN190 03/M01 A2972 RMK SLP064
Loading
Personal Weather Stations






























Interactive Weather Map New forecast layout! Learn more

10-Day Weather Forecast

Advertisements
Track Severe Weather on mobile